createdAt,value
2022-11-02T00:00:43.296Z,0.00
2022-11-02T00:01:43.397Z,0.00
2022-11-02T00:02:43.343Z,0.00
2022-11-02T00:03:44.285Z,0.00
2022-11-02T00:04:43.274Z,0.00
2022-11-02T00:05:43.255Z,0.00
2022-11-02T00:06:43.251Z,0.00
2022-11-02T00:07:43.240Z,0.00
2022-11-02T00:08:43.239Z,0.00
2022-11-02T00:09:43.236Z,0.00
2022-11-02T00:10:43.882Z,0.00
2022-11-02T00:11:43.205Z,0.00
2022-11-02T00:12:43.202Z,0.00
2022-11-02T00:13:43.193Z,0.00
2022-11-02T00:14:43.178Z,0.00
2022-11-02T00:15:43.182Z,0.00
2022-11-02T00:16:43.165Z,0.00
2022-11-02T00:17:43.156Z,0.00
2022-11-02T00:18:43.143Z,0.00
2022-11-02T00:19:43.140Z,0.00
2022-11-02T00:20:43.147Z,0.00
2022-11-02T00:21:43.128Z,0.00
2022-11-02T00:22:43.114Z,0.00
2022-11-02T00:23:43.111Z,0.00
2022-11-02T00:24:43.108Z,0.00
2022-11-02T00:25:43.100Z,0.00
2022-11-02T00:26:43.081Z,0.00
2022-11-02T00:27:43.071Z,0.00
2022-11-02T00:29:34.011Z,0.00
2022-11-02T00:30:32.341Z,0.00
2022-11-02T00:31:32.334Z,0.00
2022-11-02T00:32:32.324Z,0.00
2022-11-02T00:33:33.419Z,0.00
2022-11-02T00:34:34.002Z,0.00
2022-11-02T00:35:33.407Z,0.00
2022-11-02T00:36:33.393Z,0.00
2022-11-02T00:38:34.372Z,0.00
2022-11-02T00:39:33.358Z,0.00
2022-11-02T00:40:33.363Z,0.00
2022-11-02T00:41:33.346Z,0.00
2022-11-02T00:42:33.343Z,0.00
2022-11-02T00:43:33.329Z,0.00
2022-11-02T00:44:33.361Z,0.00
2022-11-02T00:45:33.334Z,0.00
2022-11-02T00:46:33.301Z,0.00
2022-11-02T00:47:33.310Z,0.00
2022-11-02T00:48:33.291Z,0.00
2022-11-02T00:49:33.283Z,0.00
2022-11-02T00:50:33.280Z,0.00
2022-11-02T00:51:33.270Z,0.00
2022-11-02T00:52:33.260Z,0.00
2022-11-02T00:53:33.247Z,0.00
2022-11-02T00:54:33.242Z,0.00
2022-11-02T00:55:33.250Z,0.00
2022-11-02T00:56:33.225Z,0.00
2022-11-02T00:57:33.213Z,0.00
2022-11-02T00:58:34.209Z,0.00
2022-11-02T00:59:33.196Z,0.00
2022-11-02T01:00:33.199Z,0.00
2022-11-02T01:01:33.249Z,0.00
2022-11-02T01:02:33.305Z,0.00
2022-11-02T01:03:33.170Z,0.00
2022-11-02T01:04:33.157Z,0.00
2022-11-02T01:05:33.157Z,0.00
2022-11-02T01:06:33.154Z,0.00
2022-11-02T01:07:33.133Z,0.00
2022-11-02T01:08:33.124Z,0.00
2022-11-02T01:09:33.130Z,0.00
2022-11-02T01:10:33.107Z,0.00
2022-11-02T01:11:33.111Z,0.00
2022-11-02T01:12:33.084Z,0.00
2022-11-02T01:13:34.082Z,0.00
2022-11-02T01:14:33.090Z,0.00
2022-11-02T01:15:33.069Z,0.00
2022-11-02T01:16:33.160Z,0.00
2022-11-02T01:17:33.059Z,0.00
2022-11-02T01:18:33.056Z,0.00
2022-11-02T01:19:33.040Z,0.00
2022-11-02T01:20:33.038Z,0.00
2022-11-02T01:21:33.021Z,0.00
2022-11-02T01:22:33.018Z,0.00
2022-11-02T01:23:33.011Z,0.00
2022-11-02T01:24:33.007Z,0.00
2022-11-02T01:25:32.993Z,0.00
2022-11-02T01:26:32.983Z,0.00
2022-11-02T01:27:32.989Z,0.00
2022-11-02T01:28:32.970Z,0.00
2022-11-02T01:29:32.958Z,0.00
2022-11-02T01:30:32.958Z,0.00
2022-11-02T01:31:32.939Z,0.00
2022-11-02T01:32:33.942Z,0.00
2022-11-02T01:33:32.932Z,0.00
2022-11-02T01:34:32.923Z,0.00
2022-11-02T01:35:32.915Z,0.00
2022-11-02T01:36:32.898Z,0.00
2022-11-02T01:37:33.625Z,0.00
2022-11-02T01:38:32.884Z,0.00
2022-11-02T01:39:32.883Z,0.00
2022-11-02T01:40:32.874Z,0.00
2022-11-02T01:41:32.870Z,0.00
2022-11-02T01:42:32.863Z,0.00
2022-11-02T01:43:32.846Z,0.00
2022-11-02T01:44:32.845Z,0.00
2022-11-02T01:45:32.844Z,0.00
2022-11-02T01:46:32.831Z,0.00
2022-11-02T01:47:32.817Z,0.00
2022-11-02T01:48:32.808Z,0.00
2022-11-02T01:49:32.811Z,0.00
2022-11-02T01:50:32.793Z,0.00
2022-11-02T01:51:32.809Z,0.00
2022-11-02T01:52:32.769Z,0.00
2022-11-02T01:53:33.779Z,0.00
2022-11-02T01:54:32.778Z,0.00
2022-11-02T01:55:32.756Z,0.00
2022-11-02T01:56:32.761Z,0.00
2022-11-02T01:57:32.739Z,0.00
2022-11-02T01:58:32.742Z,0.00
2022-11-02T01:59:32.726Z,0.00
2022-11-02T02:00:32.718Z,0.00
2022-11-02T02:01:32.825Z,0.00
2022-11-02T02:02:32.964Z,0.00
2022-11-02T02:03:32.694Z,0.00
2022-11-02T02:04:32.694Z,0.00
2022-11-02T02:05:32.676Z,0.00
2022-11-02T02:06:32.670Z,0.00
2022-11-02T02:07:32.671Z,0.00
2022-11-02T02:08:32.658Z,0.00
2022-11-02T02:09:32.655Z,0.00
2022-11-02T02:10:32.641Z,0.00
2022-11-02T02:11:32.626Z,0.00
2022-11-02T02:12:32.621Z,0.00
2022-11-02T02:13:32.617Z,0.00
2022-11-02T02:14:32.599Z,0.00
2022-11-02T02:15:32.613Z,0.00
2022-11-02T02:16:33.747Z,0.00
2022-11-02T02:17:33.587Z,0.00
2022-11-02T02:18:32.582Z,0.00
2022-11-02T02:19:32.569Z,0.00
2022-11-02T02:20:32.556Z,0.00
2022-11-02T02:21:32.555Z,0.00
2022-11-02T02:22:33.504Z,0.00
2022-11-02T02:23:32.543Z,0.00
2022-11-02T02:24:33.097Z,0.00
2022-11-02T02:25:32.528Z,0.00
2022-11-02T02:26:32.509Z,0.00
2022-11-02T02:27:32.502Z,0.00
2022-11-02T02:28:32.500Z,0.00
2022-11-02T02:29:32.506Z,0.00
2022-11-02T02:30:32.489Z,0.00
2022-11-02T02:31:32.474Z,0.00
2022-11-02T02:32:32.474Z,0.00
2022-11-02T02:33:32.458Z,0.00
2022-11-02T02:34:32.453Z,0.00
2022-11-02T02:35:33.094Z,0.00
2022-11-02T02:36:32.506Z,0.00
2022-11-02T02:37:32.448Z,0.00
2022-11-02T02:38:32.420Z,0.00
2022-11-02T02:39:32.417Z,0.00
2022-11-02T02:40:32.411Z,0.00
2022-11-02T02:41:32.408Z,0.00
2022-11-02T02:42:32.385Z,0.00
2022-11-02T02:43:32.383Z,0.00
2022-11-02T02:44:32.396Z,0.00
2022-11-02T02:45:32.391Z,0.00
2022-11-02T02:46:34.580Z,0.00
2022-11-02T02:47:33.360Z,0.00
2022-11-02T02:48:32.336Z,0.00
2022-11-02T02:49:33.333Z,0.00
2022-11-02T02:50:32.335Z,0.00
2022-11-02T02:51:32.320Z,0.00
2022-11-02T02:52:32.321Z,0.00
2022-11-02T02:53:32.314Z,0.00
2022-11-02T02:54:32.310Z,0.00
2022-11-02T02:55:32.285Z,0.00
2022-11-02T02:56:32.279Z,0.00
2022-11-02T02:57:32.289Z,0.00
2022-11-02T02:58:32.266Z,0.00
2022-11-02T02:59:32.262Z,0.00
2022-11-02T03:00:32.251Z,0.00
2022-11-02T03:01:32.378Z,0.00
2022-11-02T03:02:33.173Z,0.00
2022-11-02T03:03:32.221Z,0.00
2022-11-02T03:04:32.214Z,0.00
2022-11-02T03:05:32.218Z,0.00
2022-11-02T03:06:32.193Z,0.00
2022-11-02T03:07:33.935Z,0.00
2022-11-02T03:08:32.190Z,0.00
2022-11-02T03:09:32.173Z,0.00
2022-11-02T03:10:32.170Z,0.00
2022-11-02T03:11:32.168Z,0.00
2022-11-02T03:12:32.149Z,0.00
2022-11-02T03:13:32.148Z,0.00
2022-11-02T03:14:32.139Z,0.00
2022-11-02T03:15:32.128Z,0.00
2022-11-02T03:16:32.121Z,0.00
2022-11-02T03:17:32.113Z,0.00
2022-11-02T03:18:32.116Z,0.00
2022-11-02T03:19:32.111Z,0.00
2022-11-02T03:20:32.102Z,0.00
2022-11-02T03:21:32.092Z,0.00
2022-11-02T03:22:33.033Z,0.00
2022-11-02T03:23:32.076Z,0.00
2022-11-02T03:24:32.619Z,0.00
2022-11-02T03:25:32.056Z,0.00
2022-11-02T03:26:32.046Z,0.00
2022-11-02T03:27:32.039Z,0.00
2022-11-02T03:28:32.032Z,0.00
2022-11-02T03:29:32.027Z,0.00
2022-11-02T03:30:32.011Z,0.00
2022-11-02T03:31:32.010Z,0.00
2022-11-02T03:32:32.006Z,0.00
2022-11-02T03:33:31.989Z,0.00
2022-11-02T03:34:31.987Z,0.00
2022-11-02T03:35:31.992Z,0.00
2022-11-02T03:36:31.967Z,0.00
2022-11-02T03:37:31.960Z,0.00
2022-11-02T03:38:31.952Z,0.00
2022-11-02T03:39:31.947Z,0.00
2022-11-02T03:40:31.934Z,0.00
2022-11-02T03:41:31.934Z,0.00
2022-11-02T03:42:31.938Z,0.00
2022-11-02T03:43:31.910Z,0.00
2022-11-02T03:44:31.905Z,0.00
2022-11-02T03:45:31.900Z,0.00
2022-11-02T03:46:31.893Z,0.00
2022-11-02T03:47:31.895Z,0.00
2022-11-02T03:48:31.871Z,0.00
2022-11-02T03:49:31.865Z,0.00
2022-11-02T03:50:31.853Z,0.00
2022-11-02T03:51:31.841Z,0.00
2022-11-02T03:52:31.842Z,0.00
2022-11-02T03:53:31.829Z,0.00
2022-11-02T03:54:31.821Z,0.00
2022-11-02T03:55:31.820Z,0.00
2022-11-02T03:56:31.809Z,0.00
2022-11-02T03:57:31.807Z,0.00
2022-11-02T03:58:31.810Z,0.00
2022-11-02T03:59:32.545Z,0.00
2022-11-02T04:00:31.787Z,0.00
2022-11-02T04:01:31.828Z,0.00
2022-11-02T04:02:31.833Z,0.00
2022-11-02T04:03:31.755Z,0.00
2022-11-02T04:04:31.737Z,0.00
2022-11-02T04:05:31.740Z,0.00
2022-11-02T04:06:31.718Z,0.00
2022-11-02T04:07:31.723Z,0.00
2022-11-02T04:08:31.717Z,0.00
2022-11-02T04:09:31.702Z,0.00
2022-11-02T04:10:31.692Z,0.00
2022-11-02T04:11:31.680Z,0.00
2022-11-02T04:12:31.670Z,0.00
2022-11-02T04:13:31.666Z,0.00
2022-11-02T04:14:31.656Z,0.00
2022-11-02T04:15:31.659Z,0.00
2022-11-02T04:16:31.648Z,0.00
2022-11-02T04:18:31.626Z,0.00
2022-11-02T04:19:31.629Z,0.00
2022-11-02T04:20:31.606Z,0.00
2022-11-02T04:21:31.601Z,0.00
2022-11-02T04:22:31.592Z,0.00
2022-11-02T04:23:31.583Z,0.00
2022-11-02T04:25:04.081Z,0.00
2022-11-02T04:25:31.582Z,0.00
2022-11-02T04:26:31.563Z,0.00
2022-11-02T04:27:31.552Z,0.00
2022-11-02T04:28:31.537Z,0.00
2022-11-02T04:29:31.578Z,0.00
2022-11-02T04:30:31.535Z,0.00
2022-11-02T04:31:31.522Z,0.00
2022-11-02T04:32:31.511Z,0.00
2022-11-02T04:33:31.505Z,0.00
2022-11-02T04:34:31.499Z,0.00
2022-11-02T04:35:31.512Z,0.00
2022-11-02T04:36:31.489Z,0.00
2022-11-02T04:38:31.475Z,0.00
2022-11-02T04:39:31.465Z,0.00
2022-11-02T04:40:31.449Z,0.00
2022-11-02T04:41:31.457Z,0.00
2022-11-02T04:42:31.449Z,0.00
2022-11-02T04:43:31.448Z,0.00
2022-11-02T04:44:31.420Z,0.00
2022-11-02T04:45:31.417Z,0.00
2022-11-02T04:46:31.417Z,0.00
2022-11-02T04:47:31.393Z,0.00
2022-11-02T04:48:31.386Z,0.00
2022-11-02T04:49:31.379Z,0.00
2022-11-02T04:50:31.373Z,0.00
2022-11-02T04:51:31.376Z,0.00
2022-11-02T04:52:31.365Z,0.00
2022-11-02T04:53:31.350Z,0.00
2022-11-02T04:54:31.338Z,0.00
2022-11-02T04:55:31.343Z,0.00
2022-11-02T04:56:31.375Z,0.00
2022-11-02T04:57:31.412Z,0.00
2022-11-02T04:58:31.309Z,0.00
2022-11-02T04:59:31.298Z,0.00
2022-11-02T05:00:31.292Z,0.00
2022-11-02T05:01:31.387Z,0.00
2022-11-02T05:02:31.461Z,0.00
2022-11-02T05:03:31.270Z,0.00
2022-11-02T05:04:31.265Z,0.00
2022-11-02T05:05:31.272Z,0.00
2022-11-02T05:06:31.242Z,0.00
2022-11-02T05:07:31.240Z,0.00
2022-11-02T05:08:31.239Z,0.00
2022-11-02T05:09:32.071Z,0.00
2022-11-02T05:10:31.215Z,0.00
2022-11-02T05:11:31.218Z,0.00
2022-11-02T05:12:31.201Z,0.00
2022-11-02T05:13:31.193Z,0.00
2022-11-02T05:14:31.194Z,0.00
2022-11-02T05:15:31.169Z,0.00
2022-11-02T05:16:31.174Z,0.00
2022-11-02T05:17:31.178Z,0.00
2022-11-02T05:18:31.170Z,0.00
2022-11-02T05:19:31.155Z,0.00
2022-11-02T05:20:32.648Z,0.00
2022-11-02T05:21:31.125Z,0.00
2022-11-02T05:23:37.417Z,0.00
2022-11-02T05:24:37.409Z,0.00
2022-11-02T05:25:37.398Z,0.00
2022-11-02T05:26:37.399Z,0.00
2022-11-02T05:27:38.509Z,0.00
2022-11-02T05:28:39.333Z,0.00
2022-11-02T05:29:38.468Z,0.00
2022-11-02T05:30:38.454Z,0.00
2022-11-02T05:31:38.447Z,0.00
2022-11-02T05:32:38.453Z,0.00
2022-11-02T05:33:38.446Z,0.00
2022-11-02T05:34:38.428Z,0.00
2022-11-02T05:35:38.419Z,0.00
2022-11-02T05:36:38.450Z,0.00
2022-11-02T05:37:38.417Z,0.00
2022-11-02T05:39:38.395Z,0.00
2022-11-02T05:40:39.377Z,0.00
2022-11-02T05:41:38.386Z,0.00
2022-11-02T05:42:38.381Z,0.00
2022-11-02T05:43:38.369Z,0.00
2022-11-02T05:44:38.369Z,0.00
2022-11-02T05:45:38.331Z,0.00
2022-11-02T05:46:39.332Z,0.00
2022-11-02T05:47:38.326Z,0.00
2022-11-02T05:48:38.325Z,0.00
2022-11-02T05:49:38.330Z,0.00
2022-11-02T05:50:38.292Z,0.00
2022-11-02T05:51:38.298Z,0.00
2022-11-02T05:52:38.298Z,0.00
2022-11-02T05:53:38.302Z,0.00
2022-11-02T05:54:38.831Z,0.00
2022-11-02T05:55:38.259Z,0.00
2022-11-02T05:56:38.259Z,0.00
2022-11-02T05:57:38.240Z,0.00
2022-11-02T05:58:38.283Z,0.00
2022-11-02T05:59:38.246Z,0.00
2022-11-02T06:00:38.222Z,0.00
2022-11-02T06:01:38.259Z,0.00
2022-11-02T06:02:38.215Z,0.00
2022-11-02T06:03:38.203Z,5.62
2022-11-02T06:04:38.182Z,5.62
2022-11-02T06:05:38.205Z,5.62
2022-11-02T06:06:38.162Z,5.62
2022-11-02T06:07:38.203Z,5.62
2022-11-02T06:08:38.165Z,5.62
2022-11-02T06:09:38.148Z,5.62
2022-11-02T06:10:38.146Z,5.62
2022-11-02T06:11:38.125Z,11.25
2022-11-02T06:12:38.129Z,11.25
2022-11-02T06:13:38.123Z,11.25
2022-11-02T06:14:38.103Z,11.25
2022-11-02T06:15:38.097Z,11.25
2022-11-02T06:16:38.082Z,16.88
2022-11-02T06:17:38.075Z,16.88
2022-11-02T06:18:38.074Z,16.88
2022-11-02T06:19:38.079Z,16.88
2022-11-02T06:20:38.060Z,22.50
2022-11-02T06:21:38.049Z,22.50
2022-11-02T06:22:38.052Z,22.50
2022-11-02T06:23:38.062Z,28.12
2022-11-02T06:25:50.518Z,33.75
2022-11-02T06:26:50.514Z,33.75
2022-11-02T06:27:50.511Z,39.38
2022-11-02T06:28:50.498Z,39.38
2022-11-02T06:29:50.494Z,45.00
2022-11-02T06:30:51.584Z,50.62
2022-11-02T06:31:51.570Z,50.62
2022-11-02T06:32:52.082Z,56.25
2022-11-02T06:33:51.551Z,61.88
2022-11-02T06:34:51.557Z,67.50
2022-11-02T06:35:51.528Z,67.50
2022-11-02T06:36:51.518Z,73.12
2022-11-02T06:37:51.519Z,78.75
2022-11-02T06:38:51.510Z,84.38
2022-11-02T06:39:51.497Z,84.38
2022-11-02T06:40:51.491Z,84.38
2022-11-02T06:41:51.485Z,90.00
2022-11-02T06:43:10.738Z,95.62
2022-11-02T06:43:53.480Z,95.62
2022-11-02T06:44:51.463Z,101.25
2022-11-02T06:45:51.447Z,101.25
2022-11-02T06:46:51.453Z,101.25
2022-11-02T06:47:51.449Z,101.25
2022-11-02T06:48:51.429Z,101.25
2022-11-02T06:49:52.427Z,101.25
2022-11-02T06:50:51.423Z,101.25
2022-11-02T06:51:51.401Z,101.25
2022-11-02T06:52:52.155Z,106.88
2022-11-02T06:53:51.385Z,106.88
2022-11-02T06:54:51.384Z,112.50
2022-11-02T06:55:51.379Z,106.88
2022-11-02T06:56:51.366Z,106.88
2022-11-02T06:57:51.356Z,112.50
2022-11-02T06:58:51.345Z,112.50
2022-11-02T06:59:53.908Z,112.50
2022-11-02T07:00:53.209Z,118.12
2022-11-02T07:01:51.443Z,118.12
2022-11-02T07:02:51.314Z,118.12
2022-11-02T07:03:51.304Z,123.75
2022-11-02T07:04:51.298Z,123.75
2022-11-02T07:05:51.283Z,129.38
2022-11-02T07:06:51.288Z,135.00
2022-11-02T07:07:51.272Z,146.25
2022-11-02T07:08:51.264Z,151.88
2022-11-02T07:09:52.167Z,151.88
2022-11-02T07:10:51.269Z,151.88
2022-11-02T07:11:51.242Z,140.62
2022-11-02T07:12:51.235Z,140.62
2022-11-02T07:13:51.229Z,140.62
2022-11-02T07:14:51.216Z,146.25
2022-11-02T07:15:52.161Z,146.25
2022-11-02T07:16:51.207Z,146.25
2022-11-02T07:17:51.196Z,151.88
2022-11-02T07:18:51.197Z,151.88
2022-11-02T07:19:51.179Z,146.25
2022-11-02T07:20:51.172Z,146.25
2022-11-02T07:21:51.197Z,146.25
2022-11-02T07:22:52.086Z,146.25
2022-11-02T07:23:52.091Z,140.62
2022-11-02T07:24:51.216Z,146.25
2022-11-02T07:25:51.138Z,135.00
2022-11-02T07:26:51.118Z,135.00
2022-11-02T07:27:51.117Z,151.88
2022-11-02T07:28:55.023Z,151.88
2022-11-02T07:29:53.093Z,151.88
2022-11-02T07:30:51.102Z,157.50
2022-11-02T07:31:51.096Z,157.50
2022-11-02T07:32:51.099Z,157.50
2022-11-02T07:33:51.070Z,140.62
2022-11-02T07:34:51.071Z,151.88
2022-11-02T07:35:51.592Z,151.88
2022-11-02T07:36:51.668Z,157.50
2022-11-02T07:37:51.666Z,168.75
2022-11-02T07:38:51.026Z,174.38
2022-11-02T07:39:51.025Z,174.38
2022-11-02T07:40:51.014Z,174.38
2022-11-02T07:41:52.164Z,174.38
2022-11-02T07:42:51.986Z,174.38
2022-11-02T07:44:58.954Z,180.00
2022-11-02T07:45:58.940Z,180.00
2022-11-02T07:46:58.939Z,185.62
2022-11-02T07:48:00.078Z,191.25
2022-11-02T07:49:00.030Z,196.88
2022-11-02T07:50:00.182Z,202.50
2022-11-02T07:51:00.006Z,208.12
2022-11-02T07:51:59.991Z,230.62
2022-11-02T07:52:59.988Z,230.62
2022-11-02T07:53:59.976Z,225.00
2022-11-02T07:56:06.428Z,258.75
2022-11-02T07:57:06.312Z,264.38
2022-11-02T07:58:06.305Z,253.12
2022-11-02T07:59:07.397Z,258.75
2022-11-02T08:00:07.412Z,286.88
2022-11-02T08:01:07.376Z,281.25
2022-11-02T08:02:07.372Z,275.62
2022-11-02T08:03:07.738Z,247.50
2022-11-02T08:04:08.200Z,225.00
2022-11-02T08:05:07.350Z,208.12
2022-11-02T08:06:07.714Z,196.88
2022-11-02T08:07:07.339Z,219.38
2022-11-02T08:08:07.775Z,196.88
2022-11-02T08:09:07.316Z,174.38
2022-11-02T08:10:07.305Z,168.75
2022-11-02T08:11:07.296Z,163.12
2022-11-02T08:12:07.304Z,185.62
2022-11-02T08:13:07.309Z,219.38
2022-11-02T08:14:07.283Z,191.25
2022-11-02T08:15:07.792Z,174.38
2022-11-02T08:16:08.291Z,168.75
2022-11-02T08:17:07.260Z,196.88
2022-11-02T08:18:09.333Z,264.38
2022-11-02T08:19:07.238Z,298.12
2022-11-02T08:20:07.240Z,303.75
2022-11-02T08:21:07.242Z,298.12
2022-11-02T08:22:07.236Z,286.88
2022-11-02T08:23:07.201Z,241.88
2022-11-02T08:24:08.203Z,196.88
2022-11-02T08:25:07.240Z,168.75
2022-11-02T08:26:08.705Z,157.50
2022-11-02T08:27:07.188Z,191.25
2022-11-02T08:28:07.517Z,191.25
2022-11-02T08:29:07.165Z,196.88
2022-11-02T08:30:07.197Z,196.88
2022-11-02T08:31:07.144Z,202.50
2022-11-02T08:33:13.549Z,208.12
2022-11-02T08:34:13.417Z,208.12
2022-11-02T08:35:14.502Z,213.75
2022-11-02T08:36:14.523Z,219.38
2022-11-02T08:37:14.499Z,225.00
2022-11-02T08:38:14.489Z,230.62
2022-11-02T08:39:18.702Z,275.62
2022-11-02T08:40:15.462Z,275.62
2022-11-02T08:41:14.467Z,258.75
2022-11-02T08:42:14.444Z,275.62
2022-11-02T08:43:14.435Z,253.12
2022-11-02T08:44:14.442Z,241.88
2022-11-02T08:45:14.450Z,230.62
2022-11-02T08:46:16.816Z,236.25
2022-11-02T08:47:15.413Z,236.25
2022-11-02T08:48:14.416Z,258.75
2022-11-02T08:49:14.396Z,298.12
2022-11-02T08:50:14.388Z,286.88
2022-11-02T08:51:14.393Z,281.25
2022-11-02T08:52:14.387Z,281.25
2022-11-02T08:53:14.363Z,286.88
2022-11-02T08:54:14.364Z,315.00
2022-11-02T08:55:14.866Z,298.12
2022-11-02T08:56:14.454Z,326.25
2022-11-02T08:57:14.371Z,303.75
2022-11-02T08:58:15.276Z,281.25
2022-11-02T08:59:14.313Z,292.50
2022-11-02T09:00:14.314Z,320.62
2022-11-02T09:01:14.327Z,337.50
2022-11-02T09:02:14.457Z,343.12
2022-11-02T09:03:14.301Z,360.00
2022-11-02T09:04:14.284Z,343.12
2022-11-02T09:05:14.290Z,309.38
2022-11-02T09:06:14.275Z,303.75
2022-11-02T09:07:14.260Z,247.50
2022-11-02T09:08:14.329Z,270.00
2022-11-02T09:09:14.237Z,309.38
2022-11-02T09:10:14.239Z,331.88
2022-11-02T09:11:14.223Z,303.75
2022-11-02T09:12:14.206Z,281.25
2022-11-02T09:13:14.879Z,275.62
2022-11-02T09:14:14.238Z,275.62
2022-11-02T09:15:14.784Z,315.00
2022-11-02T09:16:14.198Z,320.62
2022-11-02T09:17:14.180Z,337.50
2022-11-02T09:18:14.165Z,360.00
2022-11-02T09:19:14.148Z,320.62
2022-11-02T09:20:14.159Z,309.38
2022-11-02T09:21:14.138Z,275.62
2022-11-02T09:22:14.142Z,303.75
2022-11-02T09:23:14.130Z,292.50
2022-11-02T09:24:14.112Z,303.75
2022-11-02T09:25:14.111Z,309.38
2022-11-02T09:26:14.114Z,303.75
2022-11-02T09:27:14.093Z,292.50
2022-11-02T09:28:14.233Z,303.75
2022-11-02T09:29:14.143Z,298.12
2022-11-02T09:30:14.070Z,298.12
2022-11-02T09:31:15.076Z,348.75
2022-11-02T09:32:14.175Z,331.88
2022-11-02T09:33:14.072Z,315.00
2022-11-02T09:34:14.048Z,292.50
2022-11-02T09:35:14.031Z,258.75
2022-11-02T09:36:14.028Z,264.38
2022-11-02T09:37:14.036Z,241.88
2022-11-02T09:38:14.013Z,247.50
2022-11-02T09:39:14.869Z,275.62
2022-11-02T09:40:14.012Z,264.38
2022-11-02T09:41:13.987Z,281.25
2022-11-02T09:42:14.001Z,286.88
2022-11-02T09:43:13.974Z,286.88
2022-11-02T09:44:14.794Z,275.62
2022-11-02T09:45:13.981Z,258.75
2022-11-02T09:46:14.914Z,270.00
2022-11-02T09:48:18.840Z,247.50
2022-11-02T09:49:15.929Z,236.25
2022-11-02T09:50:13.983Z,230.62
2022-11-02T09:51:13.970Z,247.50
2022-11-02T09:52:13.947Z,270.00
2022-11-02T09:53:13.885Z,275.62
2022-11-02T09:54:17.449Z,270.00
2022-11-02T09:55:13.866Z,241.88
2022-11-02T09:56:13.886Z,241.88
2022-11-02T09:57:13.860Z,241.88
2022-11-02T09:58:13.873Z,236.25
2022-11-02T09:59:14.373Z,225.00
2022-11-02T10:00:13.888Z,213.75
2022-11-02T10:01:13.876Z,230.62
2022-11-02T10:02:13.831Z,225.00
2022-11-02T10:03:13.806Z,202.50
2022-11-02T10:04:13.815Z,196.88
2022-11-02T10:05:13.813Z,213.75
2022-11-02T10:06:13.783Z,225.00
2022-11-02T10:07:13.785Z,236.25
2022-11-02T10:08:13.774Z,258.75
2022-11-02T10:09:13.777Z,258.75
2022-11-02T10:10:13.933Z,275.62
2022-11-02T10:11:13.749Z,247.50
2022-11-02T10:12:13.737Z,253.12
2022-11-02T10:13:13.725Z,264.38
2022-11-02T10:14:13.720Z,253.12
2022-11-02T10:15:13.736Z,225.00
2022-11-02T10:16:13.705Z,225.00
2022-11-02T10:17:13.721Z,241.88
2022-11-02T10:18:13.692Z,258.75
2022-11-02T10:19:13.714Z,264.38
2022-11-02T10:20:13.717Z,275.62
2022-11-02T10:21:13.671Z,281.25
2022-11-02T10:22:13.663Z,270.00
2022-11-02T10:23:14.644Z,264.38
2022-11-02T10:24:13.640Z,264.38
2022-11-02T10:25:13.655Z,253.12
2022-11-02T10:26:13.623Z,241.88
2022-11-02T10:27:14.344Z,241.88
2022-11-02T10:28:14.670Z,236.25
2022-11-02T10:29:13.608Z,236.25
2022-11-02T10:30:13.609Z,241.88
2022-11-02T10:31:15.691Z,253.12
2022-11-02T10:32:14.580Z,253.12
2022-11-02T10:33:14.385Z,241.88
2022-11-02T10:34:14.348Z,225.00
2022-11-02T10:36:18.516Z,185.62
2022-11-02T10:37:14.627Z,180.00
2022-11-02T10:38:15.222Z,196.88
2022-11-02T10:39:14.523Z,213.75
2022-11-02T10:40:14.362Z,219.38
2022-11-02T10:41:13.510Z,208.12
2022-11-02T10:42:13.553Z,196.88
2022-11-02T10:43:13.523Z,208.12
2022-11-02T10:44:14.855Z,208.12
2022-11-02T10:45:13.481Z,191.25
2022-11-02T10:46:13.472Z,191.25
2022-11-02T10:47:13.464Z,225.00
2022-11-02T10:48:13.918Z,286.88
2022-11-02T10:49:13.432Z,286.88
2022-11-02T10:50:14.438Z,258.75
2022-11-02T10:51:13.431Z,247.50
2022-11-02T10:52:13.467Z,241.88
2022-11-02T10:53:39.393Z,236.25
2022-11-02T10:54:17.828Z,236.25
2022-11-02T10:55:14.391Z,225.00
2022-11-02T10:56:13.390Z,247.50
2022-11-02T10:57:13.391Z,275.62
2022-11-02T10:58:13.364Z,303.75
2022-11-02T10:59:13.358Z,315.00
2022-11-02T11:00:13.356Z,315.00
2022-11-02T11:01:13.435Z,343.12
2022-11-02T11:02:13.353Z,303.75
2022-11-02T11:03:13.333Z,253.12
2022-11-02T11:04:13.320Z,241.88
2022-11-02T11:05:13.309Z,241.88
2022-11-02T11:06:13.330Z,247.50
2022-11-02T11:07:13.309Z,236.25
2022-11-02T11:08:13.295Z,225.00
2022-11-02T11:09:13.279Z,213.75
2022-11-02T11:10:13.277Z,225.00
2022-11-02T11:11:13.278Z,241.88
2022-11-02T11:12:13.259Z,230.62
2022-11-02T11:16:18.486Z,219.38
2022-11-02T11:20:15.189Z,213.75
2022-11-02T11:21:13.184Z,208.12
2022-11-02T11:22:13.175Z,213.75
2022-11-02T11:23:13.181Z,208.12
2022-11-02T11:24:13.180Z,219.38
2022-11-02T11:25:13.163Z,225.00
2022-11-02T11:26:13.196Z,230.62
2022-11-02T11:27:13.138Z,241.88
2022-11-02T11:28:13.134Z,230.62
2022-11-02T11:29:13.127Z,236.25
2022-11-02T11:30:13.119Z,253.12
2022-11-02T11:31:13.105Z,270.00
2022-11-02T11:32:13.097Z,275.62
2022-11-02T11:33:13.131Z,303.75
2022-11-02T11:34:13.081Z,320.62
2022-11-02T11:35:13.111Z,309.38
2022-11-02T11:36:13.115Z,292.50
2022-11-02T11:37:13.848Z,270.00
2022-11-02T11:38:13.077Z,258.75
2022-11-02T11:39:13.067Z,253.12
2022-11-02T11:40:14.050Z,258.75
2022-11-02T11:41:13.034Z,253.12
2022-11-02T11:42:13.015Z,247.50
2022-11-02T11:43:13.010Z,247.50
2022-11-02T11:44:12.999Z,275.62
2022-11-02T11:45:12.998Z,275.62
2022-11-02T11:46:13.006Z,264.38
2022-11-02T11:47:12.971Z,264.38
2022-11-02T11:48:12.974Z,258.75
2022-11-02T11:49:12.957Z,258.75
2022-11-02T11:50:12.963Z,264.38
2022-11-02T11:51:13.961Z,264.38
2022-11-02T11:52:12.934Z,281.25
2022-11-02T11:53:12.973Z,281.25
2022-11-02T11:54:12.952Z,281.25
2022-11-02T11:55:12.939Z,270.00
2022-11-02T11:56:12.913Z,275.62
2022-11-02T11:57:12.904Z,258.75
2022-11-02T11:58:12.919Z,247.50
2022-11-02T11:59:12.892Z,241.88
2022-11-02T12:00:13.036Z,247.50
2022-11-02T12:01:12.919Z,247.50
2022-11-02T12:02:12.954Z,253.12
2022-11-02T12:03:12.934Z,253.12
2022-11-02T12:04:12.862Z,247.50
2022-11-02T12:05:12.850Z,270.00
2022-11-02T12:06:13.412Z,270.00
2022-11-02T12:07:12.839Z,270.00
2022-11-02T12:08:12.863Z,247.50
2022-11-02T12:09:12.821Z,258.75
2022-11-02T12:10:12.807Z,247.50
2022-11-02T12:11:18.576Z,208.12
2022-11-02T12:12:15.727Z,219.38
2022-11-02T12:13:17.774Z,208.12
2022-11-02T12:14:12.803Z,208.12
2022-11-02T12:15:12.774Z,174.38
2022-11-02T12:17:19.242Z,191.25
2022-11-02T12:18:19.409Z,196.88
2022-11-02T12:19:20.340Z,191.25
2022-11-02T12:20:20.313Z,191.25
2022-11-02T12:21:20.901Z,185.62
2022-11-02T12:22:20.312Z,185.62
2022-11-02T12:23:20.298Z,185.62
2022-11-02T12:24:20.290Z,196.88
2022-11-02T12:25:20.296Z,191.25
2022-11-02T12:26:20.270Z,185.62
2022-11-02T12:27:21.290Z,180.00
2022-11-02T12:28:20.259Z,168.75
2022-11-02T12:29:21.263Z,157.50
2022-11-02T12:30:20.905Z,157.50
2022-11-02T12:31:20.902Z,151.88
2022-11-02T12:32:20.226Z,157.50
2022-11-02T12:33:20.221Z,168.75
2022-11-02T12:34:21.905Z,174.38
2022-11-02T12:35:28.985Z,180.00
2022-11-02T12:36:22.184Z,174.38
2022-11-02T12:37:39.096Z,180.00
2022-11-02T12:38:22.185Z,202.50
2022-11-02T12:39:20.190Z,219.38
2022-11-02T12:40:20.180Z,208.12
2022-11-02T12:41:20.158Z,208.12
2022-11-02T12:43:26.995Z,213.75
2022-11-02T12:44:27.838Z,213.75
2022-11-02T12:45:27.008Z,219.38
2022-11-02T12:46:26.957Z,213.75
2022-11-02T12:47:28.077Z,213.75
2022-11-02T12:48:28.924Z,219.38
2022-11-02T12:49:28.040Z,213.75
2022-11-02T12:50:28.916Z,208.12
2022-11-02T12:51:29.026Z,208.12
2022-11-02T12:52:28.916Z,185.62
2022-11-02T12:53:28.009Z,180.00
2022-11-02T12:54:27.989Z,208.12
2022-11-02T12:55:27.977Z,208.12
2022-11-02T12:56:27.972Z,180.00
2022-11-02T12:57:27.976Z,180.00
2022-11-02T12:58:27.972Z,180.00
2022-11-02T12:59:29.942Z,185.62
2022-11-02T13:00:27.936Z,180.00
2022-11-02T13:01:28.126Z,185.62
2022-11-02T13:02:29.439Z,185.62
2022-11-02T13:03:27.923Z,196.88
2022-11-02T13:04:30.176Z,185.62
2022-11-02T13:05:29.012Z,180.00
2022-11-02T13:06:27.921Z,180.00
2022-11-02T13:07:27.887Z,168.75
2022-11-02T13:08:27.896Z,163.12
2022-11-02T13:09:28.851Z,174.38
2022-11-02T13:10:27.854Z,174.38
2022-11-02T13:11:27.857Z,174.38
2022-11-02T13:12:27.849Z,174.38
2022-11-02T13:13:27.847Z,185.62